sensor_id;sensor_type;location;lat;lon;timestamp;P1;durP1;ratioP1;P2;durP2;ratioP2
83940;SDS011;73976;68.386;23.636;2023-12-14T00:03:45;0.47;;;0.47;;
83940;SDS011;73976;68.386;23.636;2023-12-14T00:06:13;1.08;;;0.63;;
83940;SDS011;73976;68.386;23.636;2023-12-14T00:08:41;1.33;;;0.30;;
83940;SDS011;73976;68.386;23.636;2023-12-14T00:11:09;0.47;;;0.47;;
83940;SDS011;73976;68.386;23.636;2023-12-14T00:13:38;1.75;;;0.90;;
83940;SDS011;73976;68.386;23.636;2023-12-14T00:16:07;0.35;;;0.20;;
83940;SDS011;73976;68.386;23.636;2023-12-14T00:21:03;0.20;;;0.10;;
83940;SDS011;73976;68.386;23.636;2023-12-14T00:23:31;0.15;;;0.15;;
83940;SDS011;73976;68.386;23.636;2023-12-14T00:25:58;0.17;;;0.15;;
83940;SDS011;73976;68.386;23.636;2023-12-14T00:28:26;0.40;;;0.40;;
83940;SDS011;73976;68.386;23.636;2023-12-14T00:30:57;0.25;;;0.10;;
83940;SDS011;73976;68.386;23.636;2023-12-14T00:33:25;2.03;;;0.90;;
83940;SDS011;73976;68.386;23.636;2023-12-14T00:35:52;0.28;;;0.22;;
83940;SDS011;73976;68.386;23.636;2023-12-14T00:38:20;1.13;;;0.47;;
83940;SDS011;73976;68.386;23.636;2023-12-14T00:40:47;0.32;;;0.32;;
83940;SDS011;73976;68.386;23.636;2023-12-14T00:43:15;1.33;;;0.73;;
83940;SDS011;73976;68.386;23.636;2023-12-14T00:45:42;1.25;;;0.38;;
83940;SDS011;73976;68.386;23.636;2023-12-14T00:48:10;0.73;;;0.10;;
83940;SDS011;73976;68.386;23.636;2023-12-14T00:50:37;0.57;;;0.38;;
83940;SDS011;73976;68.386;23.636;2023-12-14T00:53:05;1.98;;;0.73;;
83940;SDS011;73976;68.386;23.636;2023-12-14T00:55:32;2.15;;;0.40;;
83940;SDS011;73976;68.386;23.636;2023-12-14T00:58:00;0.30;;;0.30;;
83940;SDS011;73976;68.386;23.636;2023-12-14T01:00:27;0.90;;;0.55;;
83940;SDS011;73976;68.386;23.636;2023-12-14T01:02:55;0.13;;;0.10;;
83940;SDS011;73976;68.386;23.636;2023-12-14T01:05:23;0.65;;;0.43;;
83940;SDS011;73976;68.386;23.636;2023-12-14T01:07:51;0.40;;;0.35;;
83940;SDS011;73976;68.386;23.636;2023-12-14T01:10:18;1.80;;;0.30;;
83940;SDS011;73976;68.386;23.636;2023-12-14T01:12:46;0.45;;;0.25;;
83940;SDS011;73976;68.386;23.636;2023-12-14T01:15:13;0.05;;;0.05;;
83940;SDS011;73976;68.386;23.636;2023-12-14T01:17:40;0.43;;;0.40;;
83940;SDS011;73976;68.386;23.636;2023-12-14T01:20:08;0.60;;;0.60;;
83940;SDS011;73976;68.386;23.636;2023-12-14T01:25:04;0.10;;;0.10;;
83940;SDS011;73976;68.386;23.636;2023-12-14T01:27:31;1.15;;;0.40;;
83940;SDS011;73976;68.386;23.636;2023-12-14T01:29:59;0.47;;;0.20;;
83940;SDS011;73976;68.386;23.636;2023-12-14T01:32:26;0.28;;;0.28;;
83940;SDS011;73976;68.386;23.636;2023-12-14T01:34:54;0.98;;;0.63;;
83940;SDS011;73976;68.386;23.636;2023-12-14T01:37:21;0.77;;;0.70;;
83940;SDS011;73976;68.386;23.636;2023-12-14T01:39:49;0.35;;;0.28;;
83940;SDS011;73976;68.386;23.636;2023-12-14T01:42:16;0.30;;;0.30;;
83940;SDS011;73976;68.386;23.636;2023-12-14T01:44:44;0.30;;;0.22;;
83940;SDS011;73976;68.386;23.636;2023-12-14T01:47:11;1.33;;;0.73;;
83940;SDS011;73976;68.386;23.636;2023-12-14T01:49:38;0.00;;;0.00;;
83940;SDS011;73976;68.386;23.636;2023-12-14T01:52:08;0.35;;;0.35;;
83940;SDS011;73976;68.386;23.636;2023-12-14T01:54:35;1.42;;;0.80;;
83940;SDS011;73976;68.386;23.636;2023-12-14T01:57:03;3.17;;;0.70;;
83940;SDS011;73976;68.386;23.636;2023-12-14T01:59:30;2.28;;;0.75;;
83940;SDS011;73976;68.386;23.636;2023-12-14T02:01:58;0.57;;;0.40;;
83940;SDS011;73976;68.386;23.636;2023-12-14T02:04:26;2.15;;;0.88;;
83940;SDS011;73976;68.386;23.636;2023-12-14T02:06:54;0.63;;;0.40;;
83940;SDS011;73976;68.386;23.636;2023-12-14T02:09:21;0.35;;;0.35;;
83940;SDS011;73976;68.386;23.636;2023-12-14T02:11:49;0.65;;;0.30;;
83940;SDS011;73976;68.386;23.636;2023-12-14T02:14:16;1.23;;;0.50;;
83940;SDS011;73976;68.386;23.636;2023-12-14T02:16:44;0.85;;;0.32;;
83940;SDS011;73976;68.386;23.636;2023-12-14T02:19:11;5.22;;;0.52;;
83940;SDS011;73976;68.386;23.636;2023-12-14T02:21:39;0.38;;;0.38;;
83940;SDS011;73976;68.386;23.636;2023-12-14T02:24:06;1.30;;;0.93;;
83940;SDS011;73976;68.386;23.636;2023-12-14T02:26:33;1.10;;;0.40;;
83940;SDS011;73976;68.386;23.636;2023-12-14T02:29:01;0.75;;;0.45;;
83940;SDS011;73976;68.386;23.636;2023-12-14T02:31:28;1.88;;;0.45;;
83940;SDS011;73976;68.386;23.636;2023-12-14T02:33:56;1.45;;;0.77;;
83940;SDS011;73976;68.386;23.636;2023-12-14T02:36:23;0.75;;;0.75;;
83940;SDS011;73976;68.386;23.636;2023-12-14T02:38:51;2.88;;;1.20;;
83940;SDS011;73976;68.386;23.636;2023-12-14T02:41:18;1.90;;;1.08;;
83940;SDS011;73976;68.386;23.636;2023-12-14T02:43:45;1.20;;;0.73;;
83940;SDS011;73976;68.386;23.636;2023-12-14T02:46:13;0.80;;;0.55;;
83940;SDS011;73976;68.386;23.636;2023-12-14T02:48:42;0.70;;;0.40;;
83940;SDS011;73976;68.386;23.636;2023-12-14T02:51:13;0.32;;;0.30;;
83940;SDS011;73976;68.386;23.636;2023-12-14T02:53:42;5.15;;;1.05;;
83940;SDS011;73976;68.386;23.636;2023-12-14T02:56:09;1.73;;;0.68;;
83940;SDS011;73976;68.386;23.636;2023-12-14T02:58:38;1.08;;;0.73;;
83940;SDS011;73976;68.386;23.636;2023-12-14T03:01:05;2.05;;;1.00;;
83940;SDS011;73976;68.386;23.636;2023-12-14T03:03:33;1.25;;;0.60;;
83940;SDS011;73976;68.386;23.636;2023-12-14T03:06:00;0.40;;;0.40;;
83940;SDS011;73976;68.386;23.636;2023-12-14T03:08:28;0.98;;;0.88;;
83940;SDS011;73976;68.386;23.636;2023-12-14T03:10:55;3.40;;;1.10;;
83940;SDS011;73976;68.386;23.636;2023-12-14T03:13:23;0.00;;;0.00;;
83940;SDS011;73976;68.386;23.636;2023-12-14T03:15:50;1.35;;;0.40;;
83940;SDS011;73976;68.386;23.636;2023-12-14T03:18:18;1.15;;;0.65;;
83940;SDS011;73976;68.386;23.636;2023-12-14T03:20:45;1.13;;;0.60;;
83940;SDS011;73976;68.386;23.636;2023-12-14T03:23:13;0.60;;;0.40;;
83940;SDS011;73976;68.386;23.636;2023-12-14T03:25:41;0.98;;;0.70;;
83940;SDS011;73976;68.386;23.636;2023-12-14T03:28:08;1.85;;;1.00;;
83940;SDS011;73976;68.386;23.636;2023-12-14T03:30:36;1.25;;;0.85;;
83940;SDS011;73976;68.386;23.636;2023-12-14T03:33:03;1.92;;;0.80;;
83940;SDS011;73976;68.386;23.636;2023-12-14T03:35:34;2.42;;;0.70;;
83940;SDS011;73976;68.386;23.636;2023-12-14T03:38:01;2.25;;;0.50;;
83940;SDS011;73976;68.386;23.636;2023-12-14T03:40:29;1.38;;;0.77;;
83940;SDS011;73976;68.386;23.636;2023-12-14T03:42:56;0.50;;;0.40;;
83940;SDS011;73976;68.386;23.636;2023-12-14T03:45:24;0.93;;;0.55;;
83940;SDS011;73976;68.386;23.636;2023-12-14T03:47:51;1.20;;;0.60;;
83940;SDS011;73976;68.386;23.636;2023-12-14T03:50:19;2.28;;;0.98;;
83940;SDS011;73976;68.386;23.636;2023-12-14T03:52:46;0.65;;;0.52;;
83940;SDS011;73976;68.386;23.636;2023-12-14T03:55:14;1.60;;;0.70;;
83940;SDS011;73976;68.386;23.636;2023-12-14T03:57:44;1.38;;;0.65;;
83940;SDS011;73976;68.386;23.636;2023-12-14T04:00:12;2.45;;;1.25;;
83940;SDS011;73976;68.386;23.636;2023-12-14T04:02:40;1.63;;;1.33;;
83940;SDS011;73976;68.386;23.636;2023-12-14T04:05:07;1.60;;;1.13;;
83940;SDS011;73976;68.386;23.636;2023-12-14T04:07:36;0.25;;;0.25;;
83940;SDS011;73976;68.386;23.636;2023-12-14T04:10:08;2.90;;;0.50;;
83940;SDS011;73976;68.386;23.636;2023-12-14T04:12:36;1.95;;;0.85;;
83940;SDS011;73976;68.386;23.636;2023-12-14T04:15:05;2.20;;;0.95;;
83940;SDS011;73976;68.386;23.636;2023-12-14T04:17:34;1.75;;;0.50;;
83940;SDS011;73976;68.386;23.636;2023-12-14T04:22:29;0.50;;;0.50;;
83940;SDS011;73976;68.386;23.636;2023-12-14T04:24:57;0.65;;;0.40;;
83940;SDS011;73976;68.386;23.636;2023-12-14T04:27:24;1.10;;;0.45;;
83940;SDS011;73976;68.386;23.636;2023-12-14T04:29:55;1.63;;;1.13;;
83940;SDS011;73976;68.386;23.636;2023-12-14T04:32:23;3.10;;;1.10;;
83940;SDS011;73976;68.386;23.636;2023-12-14T04:34:50;1.45;;;0.80;;
83940;SDS011;73976;68.386;23.636;2023-12-14T04:37:17;2.38;;;1.42;;
83940;SDS011;73976;68.386;23.636;2023-12-14T04:39:45;1.55;;;1.23;;
83940;SDS011;73976;68.386;23.636;2023-12-14T04:42:12;2.00;;;0.55;;
83940;SDS011;73976;68.386;23.636;2023-12-14T04:44:40;2.33;;;1.00;;
83940;SDS011;73976;68.386;23.636;2023-12-14T04:47:07;0.85;;;0.57;;
83940;SDS011;73976;68.386;23.636;2023-12-14T04:49:35;0.60;;;0.47;;
83940;SDS011;73976;68.386;23.636;2023-12-14T04:52:03;1.80;;;0.65;;
83940;SDS011;73976;68.386;23.636;2023-12-14T04:54:30;0.73;;;0.50;;
83940;SDS011;73976;68.386;23.636;2023-12-14T04:56:58;1.05;;;0.63;;
83940;SDS011;73976;68.386;23.636;2023-12-14T04:59:25;3.00;;;1.33;;
83940;SDS011;73976;68.386;23.636;2023-12-14T05:01:53;1.42;;;1.05;;
83940;SDS011;73976;68.386;23.636;2023-12-14T05:04:20;1.60;;;0.65;;
83940;SDS011;73976;68.386;23.636;2023-12-14T05:06:48;0.65;;;0.65;;
83940;SDS011;73976;68.386;23.636;2023-12-14T05:09:15;2.05;;;0.80;;
83940;SDS011;73976;68.386;23.636;2023-12-14T05:11:42;0.93;;;0.70;;
83940;SDS011;73976;68.386;23.636;2023-12-14T05:14:10;1.67;;;0.68;;
83940;SDS011;73976;68.386;23.636;2023-12-14T05:16:38;2.95;;;0.93;;
83940;SDS011;73976;68.386;23.636;2023-12-14T05:19:06;0.80;;;0.70;;
83940;SDS011;73976;68.386;23.636;2023-12-14T05:21:33;2.63;;;1.10;;
83940;SDS011;73976;68.386;23.636;2023-12-14T05:24:01;0.75;;;0.25;;
83940;SDS011;73976;68.386;23.636;2023-12-14T05:26:29;2.17;;;0.55;;
83940;SDS011;73976;68.386;23.636;2023-12-14T05:28:57;0.98;;;0.60;;
83940;SDS011;73976;68.386;23.636;2023-12-14T05:31:24;2.20;;;0.88;;
83940;SDS011;73976;68.386;23.636;2023-12-14T05:33:52;2.88;;;1.33;;
83940;SDS011;73976;68.386;23.636;2023-12-14T05:36:19;1.73;;;0.77;;
83940;SDS011;73976;68.386;23.636;2023-12-14T05:38:47;1.85;;;0.68;;
83940;SDS011;73976;68.386;23.636;2023-12-14T05:41:15;2.13;;;1.33;;
83940;SDS011;73976;68.386;23.636;2023-12-14T05:43:43;3.55;;;0.88;;
83940;SDS011;73976;68.386;23.636;2023-12-14T05:46:19;1.42;;;0.85;;
83940;SDS011;73976;68.386;23.636;2023-12-14T05:48:48;1.00;;;0.63;;
83940;SDS011;73976;68.386;23.636;2023-12-14T05:51:27;1.15;;;0.75;;
83940;SDS011;73976;68.386;23.636;2023-12-14T05:53:58;1.50;;;1.02;;
83940;SDS011;73976;68.386;23.636;2023-12-14T05:56:26;0.98;;;0.73;;
83940;SDS011;73976;68.386;23.636;2023-12-14T05:58:53;2.25;;;0.93;;
83940;SDS011;73976;68.386;23.636;2023-12-14T06:01:22;1.98;;;1.00;;
83940;SDS011;73976;68.386;23.636;2023-12-14T06:03:50;1.45;;;0.93;;
83940;SDS011;73976;68.386;23.636;2023-12-14T06:06:18;4.63;;;0.90;;
83940;SDS011;73976;68.386;23.636;2023-12-14T06:08:45;1.48;;;1.00;;
83940;SDS011;73976;68.386;23.636;2023-12-14T06:11:13;0.85;;;0.60;;
83940;SDS011;73976;68.386;23.636;2023-12-14T06:13:41;2.55;;;1.33;;
83940;SDS011;73976;68.386;23.636;2023-12-14T06:16:08;2.45;;;0.98;;
83940;SDS011;73976;68.386;23.636;2023-12-14T06:18:40;5.70;;;1.30;;
83940;SDS011;73976;68.386;23.636;2023-12-14T06:21:11;2.17;;;0.93;;
83940;SDS011;73976;68.386;23.636;2023-12-14T06:23:39;6.00;;;1.83;;
83940;SDS011;73976;68.386;23.636;2023-12-14T06:26:07;1.70;;;0.93;;
83940;SDS011;73976;68.386;23.636;2023-12-14T06:28:34;0.80;;;0.80;;
83940;SDS011;73976;68.386;23.636;2023-12-14T06:31:02;2.50;;;1.33;;
83940;SDS011;73976;68.386;23.636;2023-12-14T06:33:30;2.92;;;0.98;;
83940;SDS011;73976;68.386;23.636;2023-12-14T06:35:58;4.15;;;1.70;;
83940;SDS011;73976;68.386;23.636;2023-12-14T06:38:30;0.65;;;0.40;;
83940;SDS011;73976;68.386;23.636;2023-12-14T06:40:58;2.25;;;0.85;;
83940;SDS011;73976;68.386;23.636;2023-12-14T06:43:26;1.38;;;1.08;;
83940;SDS011;73976;68.386;23.636;2023-12-14T06:45:53;2.60;;;1.02;;
83940;SDS011;73976;68.386;23.636;2023-12-14T06:48:21;0.95;;;0.77;;
83940;SDS011;73976;68.386;23.636;2023-12-14T06:50:48;2.45;;;1.10;;
83940;SDS011;73976;68.386;23.636;2023-12-14T06:53:16;2.97;;;1.20;;
83940;SDS011;73976;68.386;23.636;2023-12-14T06:55:43;1.88;;;1.45;;
83940;SDS011;73976;68.386;23.636;2023-12-14T06:58:11;1.02;;;0.57;;
83940;SDS011;73976;68.386;23.636;2023-12-14T07:00:38;0.25;;;0.22;;
83940;SDS011;73976;68.386;23.636;2023-12-14T07:03:06;3.65;;;1.60;;
83940;SDS011;73976;68.386;23.636;2023-12-14T07:05:33;3.88;;;0.95;;
83940;SDS011;73976;68.386;23.636;2023-12-14T07:08:01;1.23;;;1.13;;
83940;SDS011;73976;68.386;23.636;2023-12-14T07:10:29;2.67;;;1.00;;
83940;SDS011;73976;68.386;23.636;2023-12-14T07:12:56;3.30;;;0.95;;
83940;SDS011;73976;68.386;23.636;2023-12-14T07:15:24;3.63;;;1.58;;
83940;SDS011;73976;68.386;23.636;2023-12-14T07:17:52;4.25;;;1.00;;
83940;SDS011;73976;68.386;23.636;2023-12-14T07:20:19;1.25;;;1.00;;
83940;SDS011;73976;68.386;23.636;2023-12-14T07:22:48;2.45;;;1.75;;
83940;SDS011;73976;68.386;23.636;2023-12-14T07:25:15;1.75;;;0.98;;
83940;SDS011;73976;68.386;23.636;2023-12-14T07:27:43;7.60;;;2.30;;
83940;SDS011;73976;68.386;23.636;2023-12-14T07:30:10;2.72;;;0.63;;
83940;SDS011;73976;68.386;23.636;2023-12-14T07:32:38;2.20;;;0.98;;
83940;SDS011;73976;68.386;23.636;2023-12-14T07:35:06;1.65;;;1.10;;
83940;SDS011;73976;68.386;23.636;2023-12-14T07:37:34;3.45;;;1.33;;
83940;SDS011;73976;68.386;23.636;2023-12-14T07:40:01;3.42;;;1.63;;
83940;SDS011;73976;68.386;23.636;2023-12-14T07:42:30;3.92;;;1.35;;
83940;SDS011;73976;68.386;23.636;2023-12-14T07:44:57;3.50;;;1.77;;
83940;SDS011;73976;68.386;23.636;2023-12-14T07:47:25;2.03;;;1.35;;
83940;SDS011;73976;68.386;23.636;2023-12-14T07:49:52;3.80;;;2.03;;
83940;SDS011;73976;68.386;23.636;2023-12-14T07:52:19;2.25;;;1.35;;
83940;SDS011;73976;68.386;23.636;2023-12-14T07:54:47;1.38;;;1.00;;
83940;SDS011;73976;68.386;23.636;2023-12-14T07:57:14;1.23;;;1.00;;
83940;SDS011;73976;68.386;23.636;2023-12-14T07:59:42;2.05;;;1.17;;
83940;SDS011;73976;68.386;23.636;2023-12-14T08:02:09;1.55;;;0.63;;
83940;SDS011;73976;68.386;23.636;2023-12-14T08:04:37;0.82;;;0.40;;
83940;SDS011;73976;68.386;23.636;2023-12-14T08:07:04;0.82;;;0.60;;
83940;SDS011;73976;68.386;23.636;2023-12-14T08:09:31;0.35;;;0.13;;
83940;SDS011;73976;68.386;23.636;2023-12-14T08:11:59;0.98;;;0.68;;
83940;SDS011;73976;68.386;23.636;2023-12-14T08:14:26;0.88;;;0.50;;
83940;SDS011;73976;68.386;23.636;2023-12-14T08:16:53;1.33;;;0.63;;
83940;SDS011;73976;68.386;23.636;2023-12-14T08:19:21;0.73;;;0.73;;
83940;SDS011;73976;68.386;23.636;2023-12-14T08:21:49;1.05;;;0.47;;
83940;SDS011;73976;68.386;23.636;2023-12-14T08:24:16;0.68;;;0.68;;
83940;SDS011;73976;68.386;23.636;2023-12-14T08:26:43;0.70;;;0.40;;
83940;SDS011;73976;68.386;23.636;2023-12-14T08:29:11;0.73;;;0.25;;
83940;SDS011;73976;68.386;23.636;2023-12-14T08:31:38;0.17;;;0.17;;
83940;SDS011;73976;68.386;23.636;2023-12-14T08:34:06;0.68;;;0.68;;
83940;SDS011;73976;68.386;23.636;2023-12-14T08:36:33;1.00;;;0.75;;
83940;SDS011;73976;68.386;23.636;2023-12-14T08:39:00;2.67;;;0.50;;
83940;SDS011;73976;68.386;23.636;2023-12-14T08:41:28;0.77;;;0.73;;
83940;SDS011;73976;68.386;23.636;2023-12-14T08:43:55;1.52;;;0.95;;
83940;SDS011;73976;68.386;23.636;2023-12-14T08:46:23;0.70;;;0.68;;
83940;SDS011;73976;68.386;23.636;2023-12-14T08:48:50;2.63;;;2.00;;
83940;SDS011;73976;68.386;23.636;2023-12-14T08:51:18;1.52;;;1.40;;
83940;SDS011;73976;68.386;23.636;2023-12-14T08:53:47;5.75;;;2.38;;
83940;SDS011;73976;68.386;23.636;2023-12-14T08:56:15;16.00;;;4.15;;
83940;SDS011;73976;68.386;23.636;2023-12-14T08:58:42;10.10;;;4.90;;
83940;SDS011;73976;68.386;23.636;2023-12-14T09:01:09;5.07;;;3.63;;
83940;SDS011;73976;68.386;23.636;2023-12-14T09:03:37;3.95;;;1.80;;
83940;SDS011;73976;68.386;23.636;2023-12-14T09:06:04;2.22;;;1.45;;
83940;SDS011;73976;68.386;23.636;2023-12-14T09:08:32;3.25;;;1.55;;
83940;SDS011;73976;68.386;23.636;2023-12-14T09:11:00;2.00;;;1.63;;
83940;SDS011;73976;68.386;23.636;2023-12-14T09:13:27;2.28;;;2.03;;
83940;SDS011;73976;68.386;23.636;2023-12-14T09:15:55;1.13;;;1.00;;
83940;SDS011;73976;68.386;23.636;2023-12-14T09:18:22;1.42;;;0.90;;
83940;SDS011;73976;68.386;23.636;2023-12-14T09:20:50;0.28;;;0.28;;
83940;SDS011;73976;68.386;23.636;2023-12-14T09:23:18;1.10;;;0.70;;
83940;SDS011;73976;68.386;23.636;2023-12-14T09:25:48;1.38;;;0.95;;
83940;SDS011;73976;68.386;23.636;2023-12-14T09:28:16;0.32;;;0.30;;
83940;SDS011;73976;68.386;23.636;2023-12-14T09:30:45;2.10;;;0.82;;
83940;SDS011;73976;68.386;23.636;2023-12-14T09:33:12;0.65;;;0.50;;
83940;SDS011;73976;68.386;23.636;2023-12-14T09:35:40;0.65;;;0.65;;
83940;SDS011;73976;68.386;23.636;2023-12-14T09:38:08;2.03;;;0.80;;
83940;SDS011;73976;68.386;23.636;2023-12-14T09:40:35;0.17;;;0.17;;
83940;SDS011;73976;68.386;23.636;2023-12-14T09:43:02;1.33;;;0.40;;
83940;SDS011;73976;68.386;23.636;2023-12-14T09:45:34;1.17;;;0.45;;
83940;SDS011;73976;68.386;23.636;2023-12-14T09:48:02;0.85;;;0.73;;
83940;SDS011;73976;68.386;23.636;2023-12-14T09:50:30;1.23;;;1.10;;
83940;SDS011;73976;68.386;23.636;2023-12-14T09:52:58;1.35;;;1.08;;
83940;SDS011;73976;68.386;23.636;2023-12-14T09:55:26;2.88;;;0.55;;
83940;SDS011;73976;68.386;23.636;2023-12-14T09:57:53;0.47;;;0.30;;
83940;SDS011;73976;68.386;23.636;2023-12-14T10:00:33;0.30;;;0.30;;
83940;SDS011;73976;68.386;23.636;2023-12-14T10:03:18;1.20;;;0.47;;
83940;SDS011;73976;68.386;23.636;2023-12-14T10:05:48;0.95;;;0.82;;
83940;SDS011;73976;68.386;23.636;2023-12-14T10:08:16;0.75;;;0.70;;
83940;SDS011;73976;68.386;23.636;2023-12-14T10:13:13;0.08;;;0.08;;
83940;SDS011;73976;68.386;23.636;2023-12-14T10:15:45;2.00;;;1.10;;
83940;SDS011;73976;68.386;23.636;2023-12-14T10:18:21;0.30;;;0.30;;
83940;SDS011;73976;68.386;23.636;2023-12-14T10:20:50;0.40;;;0.40;;
83940;SDS011;73976;68.386;23.636;2023-12-14T10:23:18;0.98;;;0.75;;
83940;SDS011;73976;68.386;23.636;2023-12-14T10:25:46;0.15;;;0.13;;
83940;SDS011;73976;68.386;23.636;2023-12-14T10:28:13;0.25;;;0.25;;
83940;SDS011;73976;68.386;23.636;2023-12-14T10:30:41;1.40;;;0.88;;
83940;SDS011;73976;68.386;23.636;2023-12-14T10:33:09;0.10;;;0.10;;
83940;SDS011;73976;68.386;23.636;2023-12-14T10:35:36;0.88;;;0.60;;
83940;SDS011;73976;68.386;23.636;2023-12-14T10:38:04;0.70;;;0.47;;
83940;SDS011;73976;68.386;23.636;2023-12-14T10:40:32;3.47;;;0.93;;
83940;SDS011;73976;68.386;23.636;2023-12-14T10:43:00;0.40;;;0.20;;
83940;SDS011;73976;68.386;23.636;2023-12-14T10:45:32;0.50;;;0.25;;
83940;SDS011;73976;68.386;23.636;2023-12-14T10:48:00;0.65;;;0.25;;
83940;SDS011;73976;68.386;23.636;2023-12-14T10:50:31;0.50;;;0.47;;
83940;SDS011;73976;68.386;23.636;2023-12-14T10:53:00;1.65;;;0.50;;
83940;SDS011;73976;68.386;23.636;2023-12-14T10:55:31;0.82;;;0.52;;
83940;SDS011;73976;68.386;23.636;2023-12-14T10:58:04;0.55;;;0.55;;
83940;SDS011;73976;68.386;23.636;2023-12-14T11:00:31;0.82;;;0.52;;
83940;SDS011;73976;68.386;23.636;2023-12-14T11:02:59;2.08;;;1.48;;
83940;SDS011;73976;68.386;23.636;2023-12-14T11:05:28;7.82;;;3.83;;
83940;SDS011;73976;68.386;23.636;2023-12-14T11:08:03;4.45;;;3.08;;
83940;SDS011;73976;68.386;23.636;2023-12-14T11:10:38;8.00;;;2.38;;
83940;SDS011;73976;68.386;23.636;2023-12-14T11:13:11;0.32;;;0.32;;
83940;SDS011;73976;68.386;23.636;2023-12-14T11:15:51;2.67;;;1.85;;
83940;SDS011;73976;68.386;23.636;2023-12-14T11:18:22;1.35;;;0.55;;
83940;SDS011;73976;68.386;23.636;2023-12-14T11:20:57;3.53;;;0.60;;
83940;SDS011;73976;68.386;23.636;2023-12-14T11:23:36;1.02;;;0.90;;
83940;SDS011;73976;68.386;23.636;2023-12-14T11:26:06;0.73;;;0.73;;
83940;SDS011;73976;68.386;23.636;2023-12-14T11:28:39;0.82;;;0.50;;
83940;SDS011;73976;68.386;23.636;2023-12-14T11:31:11;0.32;;;0.30;;
83940;SDS011;73976;68.386;23.636;2023-12-14T11:33:39;0.45;;;0.28;;
83940;SDS011;73976;68.386;23.636;2023-12-14T11:36:13;0.68;;;0.28;;
83940;SDS011;73976;68.386;23.636;2023-12-14T11:38:42;1.00;;;0.57;;
83940;SDS011;73976;68.386;23.636;2023-12-14T11:41:11;1.70;;;0.50;;
83940;SDS011;73976;68.386;23.636;2023-12-14T11:43:39;1.92;;;0.68;;
83940;SDS011;73976;68.386;23.636;2023-12-14T11:46:10;0.25;;;0.25;;
83940;SDS011;73976;68.386;23.636;2023-12-14T11:48:38;2.30;;;0.65;;
83940;SDS011;73976;68.386;23.636;2023-12-14T11:51:06;0.77;;;0.22;;
83940;SDS011;73976;68.386;23.636;2023-12-14T11:53:35;0.00;;;0.00;;
83940;SDS011;73976;68.386;23.636;2023-12-14T11:56:06;0.10;;;0.10;;
83940;SDS011;73976;68.386;23.636;2023-12-14T11:58:34;0.52;;;0.45;;
83940;SDS011;73976;68.386;23.636;2023-12-14T12:01:14;0.45;;;0.32;;
83940;SDS011;73976;68.386;23.636;2023-12-14T12:03:43;0.20;;;0.20;;
83940;SDS011;73976;68.386;23.636;2023-12-14T12:06:21;1.02;;;1.02;;
83940;SDS011;73976;68.386;23.636;2023-12-14T12:08:55;0.40;;;0.30;;
83940;SDS011;73976;68.386;23.636;2023-12-14T12:11:23;1.40;;;0.38;;
83940;SDS011;73976;68.386;23.636;2023-12-14T12:13:55;1.05;;;0.77;;
83940;SDS011;73976;68.386;23.636;2023-12-14T12:16:24;0.15;;;0.15;;
83940;SDS011;73976;68.386;23.636;2023-12-14T12:18:52;0.13;;;0.13;;
83940;SDS011;73976;68.386;23.636;2023-12-14T12:21:19;6.32;;;1.55;;
83940;SDS011;73976;68.386;23.636;2023-12-14T12:23:47;0.65;;;0.52;;
83940;SDS011;73976;68.386;23.636;2023-12-14T12:26:14;0.65;;;0.45;;
83940;SDS011;73976;68.386;23.636;2023-12-14T12:28:42;1.27;;;0.80;;
83940;SDS011;73976;68.386;23.636;2023-12-14T12:31:09;0.00;;;0.00;;
83940;SDS011;73976;68.386;23.636;2023-12-14T12:33:37;0.65;;;0.25;;
83940;SDS011;73976;68.386;23.636;2023-12-14T12:36:05;0.30;;;0.30;;
83940;SDS011;73976;68.386;23.636;2023-12-14T12:38:33;0.43;;;0.43;;
83940;SDS011;73976;68.386;23.636;2023-12-14T12:41:00;1.75;;;0.30;;
83940;SDS011;73976;68.386;23.636;2023-12-14T12:43:28;2.83;;;0.50;;
83940;SDS011;73976;68.386;23.636;2023-12-14T12:45:56;0.52;;;0.50;;
83940;SDS011;73976;68.386;23.636;2023-12-14T12:48:25;0.40;;;0.40;;
83940;SDS011;73976;68.386;23.636;2023-12-14T12:50:53;1.45;;;1.38;;
83940;SDS011;73976;68.386;23.636;2023-12-14T12:53:21;1.17;;;0.40;;
83940;SDS011;73976;68.386;23.636;2023-12-14T12:55:49;3.38;;;1.05;;
83940;SDS011;73976;68.386;23.636;2023-12-14T13:00:44;0.35;;;0.35;;
83940;SDS011;73976;68.386;23.636;2023-12-14T13:03:12;0.13;;;0.13;;
83940;SDS011;73976;68.386;23.636;2023-12-14T13:05:39;0.32;;;0.32;;
83940;SDS011;73976;68.386;23.636;2023-12-14T13:08:07;1.00;;;0.73;;
83940;SDS011;73976;68.386;23.636;2023-12-14T13:10:35;0.28;;;0.28;;
83940;SDS011;73976;68.386;23.636;2023-12-14T13:13:04;0.55;;;0.55;;
83940;SDS011;73976;68.386;23.636;2023-12-14T13:15:32;4.05;;;1.35;;
83940;SDS011;73976;68.386;23.636;2023-12-14T13:17:59;0.63;;;0.30;;
83940;SDS011;73976;68.386;23.636;2023-12-14T13:20:27;0.32;;;0.17;;
83940;SDS011;73976;68.386;23.636;2023-12-14T13:22:54;0.05;;;0.05;;
83940;SDS011;73976;68.386;23.636;2023-12-14T13:25:22;2.15;;;0.90;;
83940;SDS011;73976;68.386;23.636;2023-12-14T13:27:53;0.28;;;0.28;;
83940;SDS011;73976;68.386;23.636;2023-12-14T13:30:20;0.20;;;0.20;;
83940;SDS011;73976;68.386;23.636;2023-12-14T13:32:50;1.58;;;1.05;;
83940;SDS011;73976;68.386;23.636;2023-12-14T13:35:17;1.80;;;0.50;;
83940;SDS011;73976;68.386;23.636;2023-12-14T13:37:45;0.73;;;0.52;;
83940;SDS011;73976;68.386;23.636;2023-12-14T13:42:42;0.05;;;0.05;;
83940;SDS011;73976;68.386;23.636;2023-12-14T13:45:25;0.20;;;0.20;;
83940;SDS011;73976;68.386;23.636;2023-12-14T13:47:56;0.55;;;0.55;;
83940;SDS011;73976;68.386;23.636;2023-12-14T13:50:25;3.28;;;0.88;;
83940;SDS011;73976;68.386;23.636;2023-12-14T13:52:55;0.52;;;0.52;;
83940;SDS011;73976;68.386;23.636;2023-12-14T13:55:23;0.32;;;0.32;;
83940;SDS011;73976;68.386;23.636;2023-12-14T13:57:51;0.28;;;0.28;;
83940;SDS011;73976;68.386;23.636;2023-12-14T14:00:18;1.00;;;0.30;;
83940;SDS011;73976;68.386;23.636;2023-12-14T14:02:46;0.68;;;0.50;;
83940;SDS011;73976;68.386;23.636;2023-12-14T14:05:13;0.22;;;0.22;;
83940;SDS011;73976;68.386;23.636;2023-12-14T14:07:41;1.02;;;0.88;;
83940;SDS011;73976;68.386;23.636;2023-12-14T14:10:08;0.50;;;0.50;;
83940;SDS011;73976;68.386;23.636;2023-12-14T14:15:05;0.08;;;0.08;;
83940;SDS011;73976;68.386;23.636;2023-12-14T14:17:33;3.45;;;1.20;;
83940;SDS011;73976;68.386;23.636;2023-12-14T14:20:01;1.15;;;0.63;;
83940;SDS011;73976;68.386;23.636;2023-12-14T14:22:28;0.90;;;0.38;;
83940;SDS011;73976;68.386;23.636;2023-12-14T14:24:56;0.55;;;0.38;;
83940;SDS011;73976;68.386;23.636;2023-12-14T14:27:23;1.23;;;0.43;;
83940;SDS011;73976;68.386;23.636;2023-12-14T14:29:51;1.05;;;0.50;;
83940;SDS011;73976;68.386;23.636;2023-12-14T14:32:21;0.73;;;0.38;;
83940;SDS011;73976;68.386;23.636;2023-12-14T14:34:49;1.38;;;1.27;;
83940;SDS011;73976;68.386;23.636;2023-12-14T14:37:17;0.08;;;0.08;;
83940;SDS011;73976;68.386;23.636;2023-12-14T14:39:44;2.15;;;0.98;;
83940;SDS011;73976;68.386;23.636;2023-12-14T14:42:12;1.67;;;1.58;;
83940;SDS011;73976;68.386;23.636;2023-12-14T14:44:39;0.38;;;0.38;;
83940;SDS011;73976;68.386;23.636;2023-12-14T14:47:07;0.90;;;0.85;;
83940;SDS011;73976;68.386;23.636;2023-12-14T14:49:35;0.32;;;0.30;;
83940;SDS011;73976;68.386;23.636;2023-12-14T14:52:02;1.25;;;0.70;;
83940;SDS011;73976;68.386;23.636;2023-12-14T14:54:30;0.55;;;0.43;;
83940;SDS011;73976;68.386;23.636;2023-12-14T14:56:57;5.97;;;0.68;;
83940;SDS011;73976;68.386;23.636;2023-12-14T14:59:25;0.47;;;0.47;;